In Rescue
 
Open Full Screen Window  High Contrast Mode
September 18, 2020 9:50 PM EDT
Weather Information
Wind Direction
  ---
Wind Speed
  00 kt (0 mph)
Wind Gust
  00 kt (0 mph)
Altimeter
30.21 in
Visibility
10 SM
Temperature
08° C
46° F
Dewpoint
-01° C
30° F
Humidity
53%
1hr Rain Fall
00.00 in.
24hr Rain Fall
00.00 in.
Sky Condition
Broken @ 7,000 ft
VFR

METAR K6B0 190150Z AUTO 00000KT 10SM BKN070 08/M01 A3021 RMK AO2 T00751009

FAA Disclaimer: The data displayed is for advisory purposes only and is not to be used for flight planning or operations.